createdAt,value
2022-08-26T00:02:35.345Z,25.85
2022-08-26T00:05:37.827Z,25.79
2022-08-26T00:08:40.823Z,25.86
2022-08-26T00:11:45.429Z,25.78
2022-08-26T00:14:47.625Z,25.78
2022-08-26T00:17:51.211Z,25.81
2022-08-26T00:20:55.130Z,25.84
2022-08-26T00:23:57.498Z,25.78
2022-08-26T00:26:59.638Z,25.85
2022-08-26T00:30:05.906Z,25.80
2022-08-26T00:33:08.352Z,25.83
2022-08-26T00:36:19.857Z,25.79
2022-08-26T00:39:22.994Z,25.77
2022-08-26T00:42:25.107Z,25.75
2022-08-26T00:45:38.204Z,25.77
2022-08-26T00:48:44.006Z,25.68
2022-08-26T00:51:53.593Z,25.74
2022-08-26T00:55:07.538Z,25.76
2022-08-26T00:58:09.631Z,25.75
2022-08-26T01:01:12.184Z,25.75
2022-08-26T01:04:19.534Z,25.81
2022-08-26T01:07:21.918Z,25.83
2022-08-26T01:10:29.901Z,25.81
2022-08-26T01:13:32.793Z,25.79
2022-08-26T01:16:37.749Z,25.83
2022-08-26T01:20:12.632Z,25.81
2022-08-26T01:23:16.262Z,25.77
2022-08-26T01:26:34.088Z,25.72
2022-08-26T01:29:40.719Z,25.61
2022-08-26T01:32:44.200Z,25.70
2022-08-26T01:35:48.140Z,25.69
2022-08-26T01:38:51.392Z,25.70
2022-08-26T01:41:57.132Z,25.73
2022-08-26T01:45:11.599Z,25.74
2022-08-26T01:48:21.084Z,25.74
2022-08-26T01:51:26.562Z,25.74
2022-08-26T01:54:28.799Z,25.68
2022-08-26T01:57:31.883Z,25.69
2022-08-26T02:00:36.096Z,25.66
2022-08-26T02:03:53.776Z,25.69
2022-08-26T02:06:57.160Z,25.69
2022-08-26T02:10:01.423Z,25.66
2022-08-26T02:13:09.615Z,25.65
2022-08-26T02:16:15.622Z,25.59
2022-08-26T02:19:23.999Z,25.58
2022-08-26T02:22:26.895Z,25.53
2022-08-26T02:25:40.446Z,25.61
2022-08-26T02:28:51.457Z,25.64
2022-08-26T02:31:55.925Z,25.64
2022-08-26T02:34:58.133Z,25.63
2022-08-26T02:38:00.657Z,25.64
2022-08-26T02:41:03.893Z,25.64
2022-08-26T02:44:07.318Z,25.64
2022-08-26T02:47:09.457Z,25.64
2022-08-26T02:50:11.754Z,25.59
2022-08-26T02:53:14.309Z,25.65
2022-08-26T02:56:17.061Z,25.64
2022-08-26T02:59:19.127Z,25.64
2022-08-26T03:02:27.664Z,25.64
2022-08-26T03:05:30.574Z,25.63
2022-08-26T03:08:32.613Z,25.59
2022-08-26T03:11:36.626Z,25.56
2022-08-26T03:14:38.902Z,25.55
2022-08-26T03:17:41.033Z,25.58
2022-08-26T03:20:44.003Z,25.57
2022-08-26T03:23:46.815Z,25.58
2022-08-26T03:26:52.956Z,25.56
2022-08-26T03:30:14.086Z,25.47
2022-08-26T03:33:17.124Z,25.53
2022-08-26T03:36:19.883Z,25.58
2022-08-26T03:39:21.913Z,25.57
2022-08-26T03:42:26.155Z,25.53
2022-08-26T03:45:28.286Z,25.48
2022-08-26T03:48:30.388Z,25.42
2022-08-26T03:51:33.620Z,25.27
2022-08-26T03:54:36.545Z,25.11
2022-08-26T03:57:38.658Z,25.09
2022-08-26T04:00:40.746Z,25.17
2022-08-26T04:03:57.789Z,25.20
2022-08-26T04:07:02.203Z,25.28
2022-08-26T04:10:04.581Z,25.37
2022-08-26T04:13:06.932Z,25.40
2022-08-26T04:16:09.205Z,25.45
2022-08-26T04:19:14.548Z,25.51
2022-08-26T04:22:24.096Z,25.58
2022-08-26T04:25:27.043Z,25.54
2022-08-26T04:28:29.935Z,25.60
2022-08-26T04:31:34.715Z,25.60
2022-08-26T04:34:37.895Z,25.59
2022-08-26T04:37:44.069Z,25.60
2022-08-26T04:40:47.158Z,25.65
2022-08-26T04:43:50.433Z,25.65
2022-08-26T04:46:54.903Z,25.61
2022-08-26T04:49:57.764Z,25.54
2022-08-26T04:53:00.400Z,25.59
2022-08-26T04:56:02.744Z,25.58
2022-08-26T04:59:16.716Z,25.60
2022-08-26T05:02:19.960Z,25.60
2022-08-26T05:05:22.537Z,25.61
2022-08-26T05:08:25.199Z,25.59
2022-08-26T05:11:27.906Z,25.62
2022-08-26T05:14:31.242Z,25.64
2022-08-26T05:17:33.490Z,25.67
2022-08-26T05:20:43.915Z,25.68
2022-08-26T05:23:48.405Z,25.65
2022-08-26T05:26:51.588Z,25.59
2022-08-26T05:29:57.566Z,25.68
2022-08-26T05:32:59.877Z,25.70
2022-08-26T05:36:07.979Z,25.69
2022-08-26T05:39:11.264Z,25.65
2022-08-26T05:42:13.469Z,25.70
2022-08-26T05:45:15.739Z,25.56
2022-08-26T05:48:22.715Z,25.62
2022-08-26T05:51:26.765Z,25.66
2022-08-26T05:54:34.941Z,25.68
2022-08-26T05:57:42.244Z,25.70
2022-08-26T06:03:51.936Z,25.61
2022-08-26T06:06:53.994Z,25.64
2022-08-26T06:10:09.939Z,25.58
2022-08-26T06:13:20.690Z,25.67
2022-08-26T06:16:24.671Z,25.66
2022-08-26T06:19:33.155Z,25.60
2022-08-26T06:22:55.146Z,25.59
2022-08-26T06:25:57.894Z,25.65
2022-08-26T06:29:00.520Z,25.63
2022-08-26T06:32:05.358Z,25.72
2022-08-26T06:35:12.252Z,25.79
2022-08-26T06:38:15.739Z,25.80
2022-08-26T06:41:20.258Z,25.83
2022-08-26T06:44:22.667Z,25.80
2022-08-26T06:47:24.872Z,25.87
2022-08-26T06:50:26.963Z,25.83
2022-08-26T06:53:29.566Z,25.85
2022-08-26T06:56:40.843Z,25.91
2022-08-26T06:59:42.925Z,25.93
2022-08-26T07:02:47.001Z,25.90
2022-08-26T07:05:49.650Z,25.90
2022-08-26T07:09:05.059Z,25.84
2022-08-26T07:12:07.472Z,25.86
2022-08-26T07:15:10.411Z,25.86
2022-08-26T07:18:12.460Z,25.79
2022-08-26T07:21:18.323Z,25.96
2022-08-26T07:24:20.967Z,25.99
2022-08-26T07:27:23.370Z,25.95
2022-08-26T07:30:26.807Z,25.99
2022-08-26T07:33:29.897Z,25.96
2022-08-26T07:36:33.153Z,26.02
2022-08-26T07:39:35.503Z,26.08
2022-08-26T07:42:40.158Z,26.11
2022-08-26T07:45:42.819Z,26.02
2022-08-26T07:48:46.141Z,26.14
2022-08-26T07:51:49.876Z,26.19
2022-08-26T07:54:51.859Z,26.19
2022-08-26T07:57:54.129Z,26.23
2022-08-26T08:00:56.623Z,26.25
2022-08-26T08:03:59.060Z,26.27
2022-08-26T08:07:01.125Z,26.37
2022-08-26T08:10:09.747Z,26.28
2022-08-26T08:13:14.616Z,26.24
2022-08-26T08:16:17.093Z,26.46
2022-08-26T08:19:19.204Z,26.48
2022-08-26T08:22:23.766Z,26.55
2022-08-26T08:25:26.961Z,26.52
2022-08-26T08:28:29.184Z,26.60
2022-08-26T08:34:57.706Z,26.57
2022-08-26T08:37:59.634Z,26.70
2022-08-26T08:41:04.215Z,26.74
2022-08-26T08:44:20.188Z,26.82
2022-08-26T08:47:36.842Z,26.85
2022-08-26T08:50:50.827Z,26.88
2022-08-26T08:53:55.486Z,26.94
2022-08-26T08:57:16.556Z,26.96
2022-08-26T09:00:19.888Z,26.96
2022-08-26T09:03:35.462Z,27.00
2022-08-26T09:06:37.550Z,27.01
2022-08-26T09:09:51.631Z,26.96
2022-08-26T09:12:54.578Z,27.04
2022-08-26T09:16:25.021Z,27.09
2022-08-26T09:19:52.731Z,27.12
2022-08-26T09:22:57.559Z,27.18
2022-08-26T09:26:25.879Z,27.24
2022-08-26T09:29:40.990Z,27.28
2022-08-26T09:32:44.554Z,27.26
2022-08-26T09:36:24.841Z,27.34
2022-08-26T09:39:39.099Z,27.38
2022-08-26T09:42:41.123Z,27.42
2022-08-26T09:45:50.642Z,27.36
2022-08-26T09:48:54.219Z,27.44
2022-08-26T09:52:15.655Z,27.43
2022-08-26T09:55:23.813Z,27.48
2022-08-26T09:58:41.996Z,27.52
2022-08-26T10:01:44.896Z,27.59
2022-08-26T10:04:56.952Z,27.62
2022-08-26T10:07:59.763Z,27.63
2022-08-26T10:11:16.339Z,27.64
2022-08-26T10:14:25.649Z,27.76
2022-08-26T10:17:34.384Z,27.74
2022-08-26T10:20:50.007Z,27.68
2022-08-26T10:23:57.496Z,27.76
2022-08-26T10:27:27.567Z,27.92
2022-08-26T10:30:38.213Z,27.99
2022-08-26T10:33:40.465Z,28.05
2022-08-26T10:37:14.459Z,28.10
2022-08-26T10:40:24.829Z,28.11
2022-08-26T10:43:36.128Z,28.26
2022-08-26T10:46:50.229Z,28.23
2022-08-26T10:49:57.597Z,28.25
2022-08-26T10:53:08.848Z,28.32
2022-08-26T10:56:29.676Z,28.40
2022-08-26T11:00:28.993Z,28.47
2022-08-26T11:03:43.919Z,28.54
2022-08-26T11:06:46.696Z,28.58
2022-08-26T11:09:49.958Z,28.73
2022-08-26T11:13:07.345Z,28.77
2022-08-26T11:16:09.715Z,28.83
2022-08-26T11:19:45.575Z,28.86
2022-08-26T11:22:55.317Z,28.95
2022-08-26T11:26:36.044Z,28.91
2022-08-26T11:30:08.454Z,28.96
2022-08-26T11:33:44.262Z,29.00
2022-08-26T11:36:46.376Z,29.03
2022-08-26T11:39:55.566Z,28.87
2022-08-26T11:43:05.844Z,28.77
2022-08-26T11:46:11.454Z,28.84
2022-08-26T11:49:14.851Z,28.90
2022-08-26T11:52:22.261Z,28.91
2022-08-26T11:55:24.344Z,28.96
2022-08-26T11:58:28.237Z,29.02
2022-08-26T12:01:33.686Z,29.01
2022-08-26T12:04:41.168Z,29.00
2022-08-26T12:07:43.391Z,29.01
2022-08-26T12:10:48.320Z,29.11
2022-08-26T12:14:00.218Z,29.23
2022-08-26T12:17:26.151Z,29.17
2022-08-26T12:20:46.026Z,29.29
2022-08-26T12:23:51.168Z,29.31
2022-08-26T12:27:14.634Z,29.19
2022-08-26T12:30:21.013Z,29.06
2022-08-26T12:33:23.432Z,29.09
2022-08-26T12:36:31.540Z,29.28
2022-08-26T12:39:35.748Z,29.31
2022-08-26T12:42:42.139Z,29.38
2022-08-26T12:45:56.213Z,29.33
2022-08-26T12:49:01.374Z,29.37
2022-08-26T12:52:05.409Z,29.47
2022-08-26T12:55:20.630Z,29.53
2022-08-26T12:58:27.562Z,29.52
2022-08-26T13:01:39.287Z,29.47
2022-08-26T13:04:43.406Z,29.35
2022-08-26T13:08:08.963Z,29.35
2022-08-26T13:11:10.880Z,29.39
2022-08-26T13:14:23.726Z,29.42
2022-08-26T13:17:28.028Z,29.49
2022-08-26T13:20:30.607Z,29.54
2022-08-26T13:23:32.601Z,29.52
2022-08-26T13:26:35.619Z,29.41
2022-08-26T13:29:38.295Z,29.34
2022-08-26T13:32:41.206Z,29.32
2022-08-26T13:35:45.302Z,29.33
2022-08-26T13:38:48.328Z,29.31
2022-08-26T13:41:54.485Z,29.30
2022-08-26T13:44:58.190Z,29.33
2022-08-26T13:48:00.634Z,29.33
2022-08-26T13:51:03.250Z,29.27
2022-08-26T13:54:10.331Z,29.28
2022-08-26T13:57:12.385Z,29.30
2022-08-26T14:00:15.495Z,29.27
2022-08-26T14:03:18.231Z,29.32
2022-08-26T14:06:21.355Z,29.43
2022-08-26T14:09:23.335Z,29.40
2022-08-26T14:12:25.458Z,29.35
2022-08-26T14:15:28.030Z,29.29
2022-08-26T14:18:41.515Z,29.26
2022-08-26T14:21:44.549Z,29.27
2022-08-26T14:24:46.695Z,29.29
2022-08-26T14:27:55.486Z,29.30
2022-08-26T14:30:58.524Z,29.25
2022-08-26T14:34:05.074Z,29.23
2022-08-26T14:37:08.182Z,29.21
2022-08-26T14:40:14.031Z,29.22
2022-08-26T14:43:16.311Z,29.21
2022-08-26T14:46:18.634Z,29.20
2022-08-26T14:49:22.269Z,29.22
2022-08-26T14:52:24.417Z,29.20
2022-08-26T14:55:27.611Z,29.15
2022-08-26T14:58:34.813Z,29.15
2022-08-26T15:01:37.748Z,29.12
2022-08-26T15:04:40.760Z,29.05
2022-08-26T15:07:42.725Z,29.03
2022-08-26T15:10:44.940Z,29.01
2022-08-26T15:13:47.536Z,29.01
2022-08-26T15:16:52.375Z,28.96
2022-08-26T15:19:54.635Z,28.92
2022-08-26T15:22:57.560Z,28.88
2022-08-26T15:26:04.425Z,28.83
2022-08-26T15:29:06.747Z,28.76
2022-08-26T15:32:09.046Z,28.72
2022-08-26T15:35:11.219Z,28.67
2022-08-26T15:38:13.677Z,28.57
2022-08-26T15:41:15.670Z,28.56
2022-08-26T15:44:17.837Z,28.55
2022-08-26T15:47:20.070Z,28.51
2022-08-26T15:50:22.286Z,28.45
2022-08-26T15:53:25.426Z,28.46
2022-08-26T15:56:33.734Z,28.44
2022-08-26T15:59:36.695Z,28.41
2022-08-26T16:02:38.841Z,28.32
2022-08-26T16:05:43.625Z,28.21
2022-08-26T16:08:46.339Z,28.29
2022-08-26T16:11:48.401Z,28.20
2022-08-26T16:14:54.134Z,28.19
2022-08-26T16:17:59.632Z,28.14
2022-08-26T16:21:13.309Z,28.12
2022-08-26T16:24:16.986Z,28.16
2022-08-26T16:27:19.486Z,28.11
2022-08-26T16:30:25.238Z,28.06
2022-08-26T16:33:31.714Z,28.02
2022-08-26T16:36:35.089Z,27.98
2022-08-26T16:39:40.212Z,27.91
2022-08-26T16:42:48.957Z,27.91
2022-08-26T16:45:51.320Z,27.84
2022-08-26T16:48:58.072Z,27.85
2022-08-26T16:52:00.387Z,27.78
2022-08-26T16:55:02.499Z,27.54
2022-08-26T16:58:04.848Z,27.75
2022-08-26T17:01:07.527Z,27.64
2022-08-26T17:04:09.717Z,27.67
2022-08-26T17:07:12.430Z,27.61
2022-08-26T17:10:14.505Z,27.60
2022-08-26T17:13:16.729Z,27.54
2022-08-26T17:16:37.355Z,27.53
2022-08-26T17:19:41.758Z,27.50
2022-08-26T17:22:51.420Z,27.45
2022-08-26T17:25:53.603Z,27.42
2022-08-26T17:28:55.715Z,27.38
2022-08-26T17:31:57.863Z,27.33
2022-08-26T17:35:00.764Z,27.27
2022-08-26T17:38:03.021Z,27.18
2022-08-26T17:41:10.142Z,27.20
2022-08-26T17:44:12.567Z,27.17
2022-08-26T17:47:15.114Z,27.16
2022-08-26T17:50:18.896Z,27.12
2022-08-26T17:53:22.089Z,27.11
2022-08-26T17:56:27.008Z,26.97
2022-08-26T17:59:30.465Z,27.02
2022-08-26T18:02:32.893Z,27.01
2022-08-26T18:05:35.212Z,26.96
2022-08-26T18:08:39.178Z,26.94
2022-08-26T18:11:41.391Z,26.97
2022-08-26T18:14:44.238Z,26.99
2022-08-26T18:17:46.815Z,26.89
2022-08-26T18:20:51.998Z,26.90
2022-08-26T18:24:01.502Z,26.89
2022-08-26T18:27:04.019Z,26.90
2022-08-26T18:30:13.427Z,26.83
2022-08-26T18:33:19.524Z,26.84
2022-08-26T18:36:24.869Z,26.83
2022-08-26T18:39:26.860Z,26.79
2022-08-26T18:42:29.741Z,26.76
2022-08-26T18:45:31.775Z,26.78
2022-08-26T18:48:37.095Z,26.75
2022-08-26T18:51:39.545Z,26.71
2022-08-26T18:54:41.663Z,26.76
2022-08-26T18:57:43.702Z,26.74
2022-08-26T19:00:46.155Z,26.70
2022-08-26T19:03:49.469Z,26.67
2022-08-26T19:06:52.696Z,26.66
2022-08-26T19:09:54.839Z,26.66
2022-08-26T19:13:00.700Z,26.64
2022-08-26T19:16:04.991Z,26.61
2022-08-26T19:19:07.422Z,26.59
2022-08-26T19:22:09.576Z,26.58
2022-08-26T19:25:12.677Z,26.59
2022-08-26T19:28:16.568Z,26.58
2022-08-26T19:31:18.691Z,26.57
2022-08-26T19:34:21.132Z,26.53
2022-08-26T19:37:23.809Z,26.50
2022-08-26T19:40:26.001Z,26.52
2022-08-26T19:43:28.351Z,26.54
2022-08-26T19:46:36.556Z,26.55
2022-08-26T19:49:38.757Z,26.48
2022-08-26T19:52:42.175Z,26.53
2022-08-26T19:55:44.345Z,26.49
2022-08-26T19:58:46.641Z,26.43
2022-08-26T20:01:52.948Z,26.48
2022-08-26T20:05:06.141Z,26.38
2022-08-26T20:08:08.360Z,25.88
2022-08-26T20:11:23.454Z,26.39
2022-08-26T20:14:27.039Z,26.42
2022-08-26T20:17:29.158Z,26.41
2022-08-26T20:20:49.703Z,26.37
2022-08-26T20:24:02.244Z,26.38
2022-08-26T20:27:07.945Z,26.37
2022-08-26T20:30:11.065Z,26.34
2022-08-26T20:33:13.095Z,26.37
2022-08-26T20:36:15.724Z,26.37
2022-08-26T20:39:21.132Z,26.37
2022-08-26T20:42:23.195Z,26.38
2022-08-26T20:45:26.077Z,26.34
2022-08-26T20:48:28.301Z,26.32
2022-08-26T20:51:30.382Z,26.35
2022-08-26T20:54:32.655Z,26.36
2022-08-26T20:57:34.881Z,26.32
2022-08-26T21:00:38.838Z,26.34
2022-08-26T21:03:41.127Z,26.29
2022-08-26T21:06:47.270Z,26.32
2022-08-26T21:09:55.103Z,26.26
2022-08-26T21:12:58.017Z,26.25
2022-08-26T21:16:00.167Z,26.30
2022-08-26T21:19:04.225Z,26.30
2022-08-26T21:22:06.446Z,26.27
2022-08-26T21:25:09.246Z,26.22
2022-08-26T21:28:11.629Z,26.25
2022-08-26T21:31:17.237Z,26.25
2022-08-26T21:34:19.797Z,26.27
2022-08-26T21:37:21.929Z,26.26
2022-08-26T21:40:24.741Z,26.23
2022-08-26T21:43:35.564Z,26.27
2022-08-26T21:46:37.944Z,26.24
2022-08-26T21:49:40.029Z,26.17
2022-08-26T21:52:42.061Z,26.21
2022-08-26T21:55:46.030Z,26.21
2022-08-26T21:58:48.355Z,26.18
2022-08-26T22:01:51.413Z,26.14
2022-08-26T22:04:54.147Z,26.20
2022-08-26T22:07:56.489Z,26.13
2022-08-26T22:11:01.185Z,26.19
2022-08-26T22:14:03.310Z,26.19
2022-08-26T22:17:06.084Z,26.18
2022-08-26T22:20:16.726Z,26.16
2022-08-26T22:23:19.072Z,26.16
2022-08-26T22:26:25.515Z,26.16
2022-08-26T22:29:27.916Z,26.16
2022-08-26T22:32:30.012Z,26.11
2022-08-26T22:35:32.161Z,26.15
2022-08-26T22:38:34.790Z,26.15
2022-08-26T22:41:37.091Z,26.15
2022-08-26T22:44:39.361Z,26.11
2022-08-26T22:47:42.083Z,26.14
2022-08-26T22:50:46.025Z,26.15
2022-08-26T22:53:48.137Z,26.15
2022-08-26T22:56:50.312Z,26.11
2022-08-26T22:59:52.421Z,26.13
2022-08-26T23:02:55.033Z,26.12
2022-08-26T23:05:57.230Z,26.09
2022-08-26T23:08:59.362Z,26.09
2022-08-26T23:12:01.728Z,26.09
2022-08-26T23:15:10.077Z,26.09
2022-08-26T23:18:13.295Z,26.03
2022-08-26T23:21:15.479Z,26.02
2022-08-26T23:24:18.523Z,26.02
2022-08-26T23:27:20.644Z,26.07
2022-08-26T23:30:26.541Z,26.08
2022-08-26T23:33:48.558Z,25.99
2022-08-26T23:36:51.254Z,25.99
2022-08-26T23:39:54.865Z,25.92
2022-08-26T23:42:58.775Z,25.85
2022-08-26T23:46:00.908Z,25.99
2022-08-26T23:49:04.284Z,25.97
2022-08-26T23:52:25.846Z,25.95
2022-08-26T23:55:28.174Z,25.98
2022-08-26T23:58:30.291Z,25.96
